sensor_id;sensor_type;location;lat;lon;timestamp;temperature;humidity
21811;DHT22;11067;48.788;9.208;2022-09-09T00:04:39;16.00;99.90
21811;DHT22;11067;48.788;9.208;2022-09-09T00:07:20;16.00;99.90
21811;DHT22;11067;48.788;9.208;2022-09-09T00:12:39;15.90;99.90
21811;DHT22;11067;48.788;9.208;2022-09-09T00:15:13;15.90;99.90
21811;DHT22;11067;48.788;9.208;2022-09-09T00:17:45;16.00;99.90
21811;DHT22;11067;48.788;9.208;2022-09-09T00:20:40;15.90;99.90
21811;DHT22;11067;48.788;9.208;2022-09-09T00:23:14;15.80;99.90
21811;DHT22;11067;48.788;9.208;2022-09-09T00:25:47;15.90;99.90
21811;DHT22;11067;48.788;9.208;2022-09-09T00:28:19;16.00;99.90
21811;DHT22;11067;48.788;9.208;2022-09-09T00:30:46;16.00;99.90
21811;DHT22;11067;48.788;9.208;2022-09-09T00:33:15;16.10;99.90
21811;DHT22;11067;48.788;9.208;2022-09-09T00:35:47;16.10;99.90
21811;DHT22;11067;48.788;9.208;2022-09-09T00:38:33;16.00;99.90
21811;DHT22;11067;48.788;9.208;2022-09-09T00:43:39;16.00;99.90
21811;DHT22;11067;48.788;9.208;2022-09-09T00:46:10;16.00;99.90
21811;DHT22;11067;48.788;9.208;2022-09-09T00:54:45;16.00;99.90
21811;DHT22;11067;48.788;9.208;2022-09-09T00:57:30;16.00;99.90
21811;DHT22;11067;48.788;9.208;2022-09-09T01:00:29;16.00;99.90
21811;DHT22;11067;48.788;9.208;2022-09-09T01:11:41;16.10;99.90
21811;DHT22;11067;48.788;9.208;2022-09-09T01:20:02;16.00;99.90
21811;DHT22;11067;48.788;9.208;2022-09-09T01:26:08;15.90;99.90
21811;DHT22;11067;48.788;9.208;2022-09-09T01:28:36;15.90;99.90
21811;DHT22;11067;48.788;9.208;2022-09-09T01:31:04;15.90;99.90
21811;DHT22;11067;48.788;9.208;2022-09-09T01:33:31;15.90;99.90
21811;DHT22;11067;48.788;9.208;2022-09-09T01:36:10;15.90;99.90
21811;DHT22;11067;48.788;9.208;2022-09-09T01:38:37;16.00;99.90
21811;DHT22;11067;48.788;9.208;2022-09-09T01:41:03;16.00;99.90
21811;DHT22;11067;48.788;9.208;2022-09-09T01:43:29;16.00;99.90
21811;DHT22;11067;48.788;9.208;2022-09-09T01:45:58;16.00;99.90
21811;DHT22;11067;48.788;9.208;2022-09-09T01:48:25;16.00;99.90
21811;DHT22;11067;48.788;9.208;2022-09-09T01:50:51;16.10;99.90
21811;DHT22;11067;48.788;9.208;2022-09-09T01:53:18;16.30;99.90
21811;DHT22;11067;48.788;9.208;2022-09-09T01:56:08;16.40;99.90
21811;DHT22;11067;48.788;9.208;2022-09-09T01:58:52;16.60;99.90
21811;DHT22;11067;48.788;9.208;2022-09-09T02:04:46;16.80;99.90
21811;DHT22;11067;48.788;9.208;2022-09-09T02:12:36;16.70;99.90
21811;DHT22;11067;48.788;9.208;2022-09-09T02:15:15;16.50;99.90
21811;DHT22;11067;48.788;9.208;2022-09-09T02:17:41;16.30;99.90
21811;DHT22;11067;48.788;9.208;2022-09-09T02:20:12;16.10;99.90
21811;DHT22;11067;48.788;9.208;2022-09-09T02:22:40;16.00;99.90
21811;DHT22;11067;48.788;9.208;2022-09-09T02:25:09;15.90;99.90
21811;DHT22;11067;48.788;9.208;2022-09-09T02:27:36;15.80;99.90
21811;DHT22;11067;48.788;9.208;2022-09-09T02:30:03;15.90;99.90
21811;DHT22;11067;48.788;9.208;2022-09-09T02:32:31;16.10;99.90
21811;DHT22;11067;48.788;9.208;2022-09-09T02:35:03;16.20;99.90
21811;DHT22;11067;48.788;9.208;2022-09-09T02:37:37;16.30;99.90
21811;DHT22;11067;48.788;9.208;2022-09-09T02:40:05;16.40;99.90
21811;DHT22;11067;48.788;9.208;2022-09-09T02:42:31;16.50;99.90
21811;DHT22;11067;48.788;9.208;2022-09-09T02:44:57;16.50;99.90
21811;DHT22;11067;48.788;9.208;2022-09-09T02:47:29;16.40;99.90
21811;DHT22;11067;48.788;9.208;2022-09-09T02:56:17;16.60;99.90
21811;DHT22;11067;48.788;9.208;2022-09-09T02:58:23;16.50;99.90
21811;DHT22;11067;48.788;9.208;2022-09-09T03:00:50;16.50;99.90
21811;DHT22;11067;48.788;9.208;2022-09-09T03:03:18;16.40;99.90
21811;DHT22;11067;48.788;9.208;2022-09-09T03:05:44;16.40;99.90
21811;DHT22;11067;48.788;9.208;2022-09-09T03:08:10;16.40;99.90
21811;DHT22;11067;48.788;9.208;2022-09-09T03:10:36;16.40;99.90
21811;DHT22;11067;48.788;9.208;2022-09-09T03:13:02;16.40;99.90
21811;DHT22;11067;48.788;9.208;2022-09-09T03:15:29;16.20;99.90
21811;DHT22;11067;48.788;9.208;2022-09-09T03:17:57;16.20;99.90
21811;DHT22;11067;48.788;9.208;2022-09-09T03:20:27;16.30;99.90
21811;DHT22;11067;48.788;9.208;2022-09-09T03:22:54;16.30;99.90
21811;DHT22;11067;48.788;9.208;2022-09-09T03:25:20;16.30;99.90
21811;DHT22;11067;48.788;9.208;2022-09-09T03:27:46;16.20;99.90
21811;DHT22;11067;48.788;9.208;2022-09-09T03:30:11;16.00;99.90
21811;DHT22;11067;48.788;9.208;2022-09-09T03:32:37;15.80;99.90
21811;DHT22;11067;48.788;9.208;2022-09-09T03:35:03;15.70;99.90
21811;DHT22;11067;48.788;9.208;2022-09-09T03:37:29;15.60;99.90
21811;DHT22;11067;48.788;9.208;2022-09-09T03:39:54;15.50;99.90
21811;DHT22;11067;48.788;9.208;2022-09-09T03:42:20;15.40;99.90
21811;DHT22;11067;48.788;9.208;2022-09-09T03:44:47;15.40;99.90
21811;DHT22;11067;48.788;9.208;2022-09-09T03:47:20;15.40;99.90
21811;DHT22;11067;48.788;9.208;2022-09-09T03:49:47;15.30;99.90
21811;DHT22;11067;48.788;9.208;2022-09-09T03:52:14;15.30;99.90
21811;DHT22;11067;48.788;9.208;2022-09-09T03:54:40;15.50;99.90
21811;DHT22;11067;48.788;9.208;2022-09-09T03:57:06;15.50;99.90
21811;DHT22;11067;48.788;9.208;2022-09-09T03:59:32;15.50;99.90
21811;DHT22;11067;48.788;9.208;2022-09-09T04:01:58;15.40;99.90
21811;DHT22;11067;48.788;9.208;2022-09-09T04:04:24;15.40;99.90
21811;DHT22;11067;48.788;9.208;2022-09-09T04:06:51;15.30;99.90
21811;DHT22;11067;48.788;9.208;2022-09-09T04:09:17;15.30;99.90
21811;DHT22;11067;48.788;9.208;2022-09-09T04:11:42;15.40;99.90
21811;DHT22;11067;48.788;9.208;2022-09-09T04:14:08;15.40;99.90
21811;DHT22;11067;48.788;9.208;2022-09-09T04:16:34;15.40;99.90
21811;DHT22;11067;48.788;9.208;2022-09-09T04:19:02;15.40;99.90
21811;DHT22;11067;48.788;9.208;2022-09-09T04:21:30;15.30;99.90
21811;DHT22;11067;48.788;9.208;2022-09-09T04:23:55;15.30;99.90
21811;DHT22;11067;48.788;9.208;2022-09-09T04:26:21;15.20;99.90
21811;DHT22;11067;48.788;9.208;2022-09-09T04:28:46;15.20;99.90
21811;DHT22;11067;48.788;9.208;2022-09-09T04:31:17;15.20;99.90
21811;DHT22;11067;48.788;9.208;2022-09-09T04:33:44;15.30;99.90
21811;DHT22;11067;48.788;9.208;2022-09-09T04:36:09;15.30;99.90
21811;DHT22;11067;48.788;9.208;2022-09-09T04:38:35;15.30;99.90
21811;DHT22;11067;48.788;9.208;2022-09-09T04:41:01;15.40;99.90
21811;DHT22;11067;48.788;9.208;2022-09-09T04:43:27;15.30;99.90
21811;DHT22;11067;48.788;9.208;2022-09-09T04:45:53;15.30;99.90
21811;DHT22;11067;48.788;9.208;2022-09-09T04:48:19;15.20;99.90
21811;DHT22;11067;48.788;9.208;2022-09-09T04:50:59;15.10;99.90
21811;DHT22;11067;48.788;9.208;2022-09-09T04:53:25;15.10;99.90
21811;DHT22;11067;48.788;9.208;2022-09-09T04:56:12;15.10;99.90
21811;DHT22;11067;48.788;9.208;2022-09-09T04:58:39;15.10;99.90
21811;DHT22;11067;48.788;9.208;2022-09-09T05:01:06;15.10;99.90
21811;DHT22;11067;48.788;9.208;2022-09-09T05:03:32;15.10;99.90
21811;DHT22;11067;48.788;9.208;2022-09-09T05:06:06;15.00;99.90
21811;DHT22;11067;48.788;9.208;2022-09-09T05:08:32;15.00;99.90
21811;DHT22;11067;48.788;9.208;2022-09-09T05:10:57;15.00;99.90
21811;DHT22;11067;48.788;9.208;2022-09-09T05:13:26;14.90;99.90
21811;DHT22;11067;48.788;9.208;2022-09-09T05:15:52;14.90;99.90
21811;DHT22;11067;48.788;9.208;2022-09-09T05:18:18;15.00;99.90
21811;DHT22;11067;48.788;9.208;2022-09-09T05:20:44;15.00;99.90
21811;DHT22;11067;48.788;9.208;2022-09-09T05:23:09;15.20;99.90
21811;DHT22;11067;48.788;9.208;2022-09-09T05:25:38;15.30;99.90
21811;DHT22;11067;48.788;9.208;2022-09-09T05:28:05;15.30;99.90
21811;DHT22;11067;48.788;9.208;2022-09-09T05:30:32;15.50;99.90
21811;DHT22;11067;48.788;9.208;2022-09-09T05:32:58;15.60;99.90
21811;DHT22;11067;48.788;9.208;2022-09-09T05:35:23;15.70;99.90
21811;DHT22;11067;48.788;9.208;2022-09-09T05:37:49;15.80;99.90
21811;DHT22;11067;48.788;9.208;2022-09-09T05:40:14;16.00;99.90
21811;DHT22;11067;48.788;9.208;2022-09-09T05:42:40;16.20;99.90
21811;DHT22;11067;48.788;9.208;2022-09-09T05:45:07;16.30;99.90
21811;DHT22;11067;48.788;9.208;2022-09-09T05:47:34;16.20;99.90
21811;DHT22;11067;48.788;9.208;2022-09-09T05:50:00;16.10;99.90
21811;DHT22;11067;48.788;9.208;2022-09-09T05:52:26;16.10;99.90
21811;DHT22;11067;48.788;9.208;2022-09-09T05:54:52;16.00;99.90
21811;DHT22;11067;48.788;9.208;2022-09-09T05:57:19;16.00;99.90
21811;DHT22;11067;48.788;9.208;2022-09-09T05:59:45;15.90;99.90
21811;DHT22;11067;48.788;9.208;2022-09-09T06:02:11;15.90;99.90
21811;DHT22;11067;48.788;9.208;2022-09-09T06:04:37;15.90;99.90
21811;DHT22;11067;48.788;9.208;2022-09-09T06:07:04;16.00;99.90
21811;DHT22;11067;48.788;9.208;2022-09-09T06:09:30;16.00;99.90
21811;DHT22;11067;48.788;9.208;2022-09-09T06:11:56;15.90;99.90
21811;DHT22;11067;48.788;9.208;2022-09-09T06:14:23;16.10;99.90
21811;DHT22;11067;48.788;9.208;2022-09-09T06:16:50;16.10;99.90
21811;DHT22;11067;48.788;9.208;2022-09-09T06:19:16;16.10;99.90
21811;DHT22;11067;48.788;9.208;2022-09-09T06:21:41;16.10;99.90
21811;DHT22;11067;48.788;9.208;2022-09-09T06:24:08;16.20;99.90
21811;DHT22;11067;48.788;9.208;2022-09-09T06:26:36;16.30;99.90
21811;DHT22;11067;48.788;9.208;2022-09-09T06:29:02;16.40;99.90
21811;DHT22;11067;48.788;9.208;2022-09-09T06:31:31;16.50;99.90
21811;DHT22;11067;48.788;9.208;2022-09-09T06:33:58;16.60;99.90
21811;DHT22;11067;48.788;9.208;2022-09-09T06:36:31;16.70;99.90
21811;DHT22;11067;48.788;9.208;2022-09-09T06:38:58;16.70;99.90
21811;DHT22;11067;48.788;9.208;2022-09-09T06:41:26;16.90;99.90
21811;DHT22;11067;48.788;9.208;2022-09-09T06:43:52;17.10;99.90
21811;DHT22;11067;48.788;9.208;2022-09-09T06:46:26;17.40;99.90
21811;DHT22;11067;48.788;9.208;2022-09-09T06:48:56;17.50;99.90
21811;DHT22;11067;48.788;9.208;2022-09-09T06:51:23;17.70;99.90
21811;DHT22;11067;48.788;9.208;2022-09-09T06:53:54;17.70;99.90
21811;DHT22;11067;48.788;9.208;2022-09-09T06:56:26;17.60;99.90
21811;DHT22;11067;48.788;9.208;2022-09-09T06:58:54;17.70;99.90
21811;DHT22;11067;48.788;9.208;2022-09-09T07:01:28;17.60;99.90
21811;DHT22;11067;48.788;9.208;2022-09-09T07:03:55;17.50;99.90
21811;DHT22;11067;48.788;9.208;2022-09-09T07:06:26;17.40;99.90
21811;DHT22;11067;48.788;9.208;2022-09-09T07:08:53;17.30;99.90
21811;DHT22;11067;48.788;9.208;2022-09-09T07:11:21;17.40;99.90
21811;DHT22;11067;48.788;9.208;2022-09-09T07:13:48;17.50;99.90
21811;DHT22;11067;48.788;9.208;2022-09-09T07:16:16;17.30;99.90
21811;DHT22;11067;48.788;9.208;2022-09-09T07:18:43;17.40;99.90
21811;DHT22;11067;48.788;9.208;2022-09-09T07:21:10;17.50;99.90
21811;DHT22;11067;48.788;9.208;2022-09-09T07:23:38;17.30;99.90
21811;DHT22;11067;48.788;9.208;2022-09-09T07:26:12;17.40;99.90
21811;DHT22;11067;48.788;9.208;2022-09-09T07:28:38;17.50;99.90
21811;DHT22;11067;48.788;9.208;2022-09-09T07:31:05;17.70;99.90
21811;DHT22;11067;48.788;9.208;2022-09-09T07:33:32;17.90;99.90
21811;DHT22;11067;48.788;9.208;2022-09-09T07:36:26;17.80;99.90
21811;DHT22;11067;48.788;9.208;2022-09-09T07:38:55;17.90;99.90
21811;DHT22;11067;48.788;9.208;2022-09-09T07:41:24;18.20;99.90
21811;DHT22;11067;48.788;9.208;2022-09-09T07:43:50;18.20;99.90
21811;DHT22;11067;48.788;9.208;2022-09-09T07:46:18;18.30;99.90
21811;DHT22;11067;48.788;9.208;2022-09-09T07:48:52;18.80;99.90
21811;DHT22;11067;48.788;9.208;2022-09-09T07:51:22;18.70;99.90
21811;DHT22;11067;48.788;9.208;2022-09-09T07:53:51;18.80;99.90
21811;DHT22;11067;48.788;9.208;2022-09-09T07:56:18;18.70;99.90
21811;DHT22;11067;48.788;9.208;2022-09-09T07:58:46;18.60;99.90
21811;DHT22;11067;48.788;9.208;2022-09-09T08:01:17;18.60;99.90
21811;DHT22;11067;48.788;9.208;2022-09-09T08:03:44;18.60;99.90
21811;DHT22;11067;48.788;9.208;2022-09-09T08:06:11;18.70;99.90
21811;DHT22;11067;48.788;9.208;2022-09-09T08:08:38;19.00;99.90
21811;DHT22;11067;48.788;9.208;2022-09-09T08:11:11;19.70;99.90
21811;DHT22;11067;48.788;9.208;2022-09-09T08:13:38;20.10;99.90
21811;DHT22;11067;48.788;9.208;2022-09-09T08:16:07;20.50;99.90
21811;DHT22;11067;48.788;9.208;2022-09-09T08:18:33;20.40;99.90
21811;DHT22;11067;48.788;9.208;2022-09-09T08:21:09;20.60;99.90
21811;DHT22;11067;48.788;9.208;2022-09-09T08:23:37;20.70;99.90
21811;DHT22;11067;48.788;9.208;2022-09-09T08:26:06;20.90;99.90
21811;DHT22;11067;48.788;9.208;2022-09-09T08:28:31;21.00;99.90
21811;DHT22;11067;48.788;9.208;2022-09-09T08:31:05;21.20;99.90
21811;DHT22;11067;48.788;9.208;2022-09-09T08:33:32;21.30;99.90
21811;DHT22;11067;48.788;9.208;2022-09-09T08:35:58;21.00;99.90
21811;DHT22;11067;48.788;9.208;2022-09-09T08:38:24;20.60;99.90
21811;DHT22;11067;48.788;9.208;2022-09-09T08:40:52;20.50;99.90
21811;DHT22;11067;48.788;9.208;2022-09-09T08:43:21;20.80;99.90
21811;DHT22;11067;48.788;9.208;2022-09-09T08:45:58;21.00;99.90
21811;DHT22;11067;48.788;9.208;2022-09-09T08:48:43;21.20;99.90
21811;DHT22;11067;48.788;9.208;2022-09-09T08:51:11;21.30;99.90
21811;DHT22;11067;48.788;9.208;2022-09-09T08:53:44;21.60;99.90
21811;DHT22;11067;48.788;9.208;2022-09-09T08:56:14;21.50;99.90
21811;DHT22;11067;48.788;9.208;2022-09-09T08:58:47;21.20;99.90
21811;DHT22;11067;48.788;9.208;2022-09-09T09:01:42;21.30;99.90
21811;DHT22;11067;48.788;9.208;2022-09-09T09:04:38;21.80;99.90
21811;DHT22;11067;48.788;9.208;2022-09-09T09:10:26;21.90;99.90
21811;DHT22;11067;48.788;9.208;2022-09-09T09:12:56;22.10;99.90
21811;DHT22;11067;48.788;9.208;2022-09-09T09:15:33;21.90;99.90
21811;DHT22;11067;48.788;9.208;2022-09-09T09:18:02;21.50;99.90
21811;DHT22;11067;48.788;9.208;2022-09-09T09:21:03;21.60;99.90
21811;DHT22;11067;48.788;9.208;2022-09-09T09:23:42;21.50;99.90
21811;DHT22;11067;48.788;9.208;2022-09-09T09:26:10;21.50;99.90
21811;DHT22;11067;48.788;9.208;2022-09-09T09:28:39;21.60;99.90
21811;DHT22;11067;48.788;9.208;2022-09-09T09:31:08;21.70;99.90
21811;DHT22;11067;48.788;9.208;2022-09-09T09:33:45;21.50;99.90
21811;DHT22;11067;48.788;9.208;2022-09-09T09:36:12;21.10;99.90
21811;DHT22;11067;48.788;9.208;2022-09-09T09:38:58;20.70;99.90
21811;DHT22;11067;48.788;9.208;2022-09-09T09:41:38;20.30;99.90
21811;DHT22;11067;48.788;9.208;2022-09-09T09:44:06;19.60;99.90
21811;DHT22;11067;48.788;9.208;2022-09-09T09:46:46;19.30;99.90
21811;DHT22;11067;48.788;9.208;2022-09-09T09:49:12;19.40;99.90
21811;DHT22;11067;48.788;9.208;2022-09-09T09:51:39;19.60;99.90
21811;DHT22;11067;48.788;9.208;2022-09-09T09:54:13;19.80;99.90
21811;DHT22;11067;48.788;9.208;2022-09-09T09:56:44;20.20;99.90
21811;DHT22;11067;48.788;9.208;2022-09-09T10:01:49;20.60;99.90
21811;DHT22;11067;48.788;9.208;2022-09-09T10:04:22;20.90;99.90
21811;DHT22;11067;48.788;9.208;2022-09-09T10:06:49;21.20;99.90
21811;DHT22;11067;48.788;9.208;2022-09-09T10:09:29;21.20;99.90
21811;DHT22;11067;48.788;9.208;2022-09-09T10:12:24;21.40;99.90
21811;DHT22;11067;48.788;9.208;2022-09-09T10:23:11;21.60;99.90
21811;DHT22;11067;48.788;9.208;2022-09-09T10:26:02;21.90;99.90
21811;DHT22;11067;48.788;9.208;2022-09-09T10:31:19;22.00;99.90
21811;DHT22;11067;48.788;9.208;2022-09-09T10:34:16;22.50;99.90
21811;DHT22;11067;48.788;9.208;2022-09-09T10:36:48;22.80;99.90
21811;DHT22;11067;48.788;9.208;2022-09-09T10:42:14;23.10;99.90
21811;DHT22;11067;48.788;9.208;2022-09-09T10:47:45;23.20;99.90
21811;DHT22;11067;48.788;9.208;2022-09-09T10:50:39;23.20;99.90
21811;DHT22;11067;48.788;9.208;2022-09-09T10:55:50;23.50;99.90
21811;DHT22;11067;48.788;9.208;2022-09-09T10:58:32;23.10;99.90
21811;DHT22;11067;48.788;9.208;2022-09-09T11:01:06;23.00;99.90
21811;DHT22;11067;48.788;9.208;2022-09-09T11:03:37;22.90;99.90
21811;DHT22;11067;48.788;9.208;2022-09-09T11:06:09;23.40;99.90
21811;DHT22;11067;48.788;9.208;2022-09-09T11:08:39;23.80;99.90
21811;DHT22;11067;48.788;9.208;2022-09-09T11:11:29;23.80;99.90
21811;DHT22;11067;48.788;9.208;2022-09-09T11:14:10;24.00;99.90
21811;DHT22;11067;48.788;9.208;2022-09-09T11:17:03;23.70;99.90
21811;DHT22;11067;48.788;9.208;2022-09-09T11:19:39;23.60;99.90
21811;DHT22;11067;48.788;9.208;2022-09-09T11:24:40;22.90;99.90
21811;DHT22;11067;48.788;9.208;2022-09-09T11:27:16;22.10;99.90
21811;DHT22;11067;48.788;9.208;2022-09-09T11:33:07;21.50;99.90
21811;DHT22;11067;48.788;9.208;2022-09-09T11:36:00;21.40;99.90
21811;DHT22;11067;48.788;9.208;2022-09-09T11:38:46;21.10;99.90
21811;DHT22;11067;48.788;9.208;2022-09-09T11:41:13;21.00;99.90
21811;DHT22;11067;48.788;9.208;2022-09-09T11:43:45;21.00;99.90
21811;DHT22;11067;48.788;9.208;2022-09-09T11:46:15;20.90;99.90
21811;DHT22;11067;48.788;9.208;2022-09-09T11:48:44;20.60;99.90
21811;DHT22;11067;48.788;9.208;2022-09-09T11:51:33;20.50;99.90
21811;DHT22;11067;48.788;9.208;2022-09-09T11:54:27;20.50;99.90
21811;DHT22;11067;48.788;9.208;2022-09-09T11:56:54;20.30;99.90
21811;DHT22;11067;48.788;9.208;2022-09-09T11:59:22;20.30;99.90
21811;DHT22;11067;48.788;9.208;2022-09-09T12:02:18;20.60;99.90
21811;DHT22;11067;48.788;9.208;2022-09-09T12:05:07;20.80;99.90
21811;DHT22;11067;48.788;9.208;2022-09-09T12:07:56;20.90;99.90
21811;DHT22;11067;48.788;9.208;2022-09-09T12:10:30;21.50;99.90
21811;DHT22;11067;48.788;9.208;2022-09-09T12:13:20;21.70;99.90
21811;DHT22;11067;48.788;9.208;2022-09-09T12:15:49;21.80;99.90
21811;DHT22;11067;48.788;9.208;2022-09-09T12:18:25;21.40;99.90
21811;DHT22;11067;48.788;9.208;2022-09-09T12:21:07;21.50;99.90
21811;DHT22;11067;48.788;9.208;2022-09-09T12:23:47;20.90;99.90
21811;DHT22;11067;48.788;9.208;2022-09-09T12:37:36;22.40;99.90
21811;DHT22;11067;48.788;9.208;2022-09-09T12:42:48;22.30;99.90
21811;DHT22;11067;48.788;9.208;2022-09-09T12:45:21;22.40;99.90
21811;DHT22;11067;48.788;9.208;2022-09-09T12:50:22;22.60;99.90
21811;DHT22;11067;48.788;9.208;2022-09-09T12:52:52;22.60;99.90
21811;DHT22;11067;48.788;9.208;2022-09-09T12:55:21;22.40;99.90
21811;DHT22;11067;48.788;9.208;2022-09-09T12:57:50;22.40;99.90
21811;DHT22;11067;48.788;9.208;2022-09-09T13:00:23;22.10;99.90
21811;DHT22;11067;48.788;9.208;2022-09-09T13:02:52;21.90;99.90
21811;DHT22;11067;48.788;9.208;2022-09-09T13:05:23;21.80;99.90
21811;DHT22;11067;48.788;9.208;2022-09-09T13:07:49;22.10;99.90
21811;DHT22;11067;48.788;9.208;2022-09-09T13:10:26;22.40;99.90
21811;DHT22;11067;48.788;9.208;2022-09-09T13:12:54;22.50;99.90
21811;DHT22;11067;48.788;9.208;2022-09-09T13:15:23;22.50;99.90
21811;DHT22;11067;48.788;9.208;2022-09-09T13:18:03;22.40;99.90
21811;DHT22;11067;48.788;9.208;2022-09-09T13:20:30;22.40;99.90
21811;DHT22;11067;48.788;9.208;2022-09-09T13:22:56;22.20;99.90
21811;DHT22;11067;48.788;9.208;2022-09-09T13:25:27;22.50;99.90
21811;DHT22;11067;48.788;9.208;2022-09-09T13:28:05;22.60;99.90
21811;DHT22;11067;48.788;9.208;2022-09-09T13:30:37;22.80;99.90
21811;DHT22;11067;48.788;9.208;2022-09-09T13:35:32;23.00;99.90
21811;DHT22;11067;48.788;9.208;2022-09-09T13:38:05;22.90;99.90
21811;DHT22;11067;48.788;9.208;2022-09-09T13:40:31;23.00;99.90
21811;DHT22;11067;48.788;9.208;2022-09-09T13:42:58;23.20;99.90
21811;DHT22;11067;48.788;9.208;2022-09-09T13:45:25;23.10;99.90
21811;DHT22;11067;48.788;9.208;2022-09-09T13:47:54;23.00;99.90
21811;DHT22;11067;48.788;9.208;2022-09-09T13:50:21;22.80;99.90
21811;DHT22;11067;48.788;9.208;2022-09-09T13:52:52;22.70;99.90
21811;DHT22;11067;48.788;9.208;2022-09-09T13:55:19;22.60;99.90
21811;DHT22;11067;48.788;9.208;2022-09-09T13:57:53;22.40;99.90
21811;DHT22;11067;48.788;9.208;2022-09-09T14:00:19;22.50;99.90
21811;DHT22;11067;48.788;9.208;2022-09-09T14:02:46;22.80;99.90
21811;DHT22;11067;48.788;9.208;2022-09-09T14:05:12;23.00;99.90
21811;DHT22;11067;48.788;9.208;2022-09-09T14:07:38;23.50;99.90
21811;DHT22;11067;48.788;9.208;2022-09-09T14:10:05;23.70;99.90
21811;DHT22;11067;48.788;9.208;2022-09-09T14:12:31;23.50;99.90
21811;DHT22;11067;48.788;9.208;2022-09-09T14:14:57;23.20;99.90
21811;DHT22;11067;48.788;9.208;2022-09-09T14:17:22;22.90;99.90
21811;DHT22;11067;48.788;9.208;2022-09-09T14:19:48;22.90;99.90
21811;DHT22;11067;48.788;9.208;2022-09-09T14:22:14;23.00;99.90
21811;DHT22;11067;48.788;9.208;2022-09-09T14:24:39;23.00;99.90
21811;DHT22;11067;48.788;9.208;2022-09-09T14:27:06;23.00;99.90
21811;DHT22;11067;48.788;9.208;2022-09-09T14:29:31;23.10;99.90
21811;DHT22;11067;48.788;9.208;2022-09-09T14:31:58;23.00;99.90
21811;DHT22;11067;48.788;9.208;2022-09-09T14:34:26;23.10;99.90
21811;DHT22;11067;48.788;9.208;2022-09-09T14:36:51;23.00;99.90
21811;DHT22;11067;48.788;9.208;2022-09-09T14:39:17;22.80;99.90
21811;DHT22;11067;48.788;9.208;2022-09-09T14:41:43;23.00;99.90
21811;DHT22;11067;48.788;9.208;2022-09-09T14:44:08;23.20;99.90
21811;DHT22;11067;48.788;9.208;2022-09-09T14:46:34;23.20;99.90
21811;DHT22;11067;48.788;9.208;2022-09-09T14:48:59;23.10;99.90
21811;DHT22;11067;48.788;9.208;2022-09-09T14:51:25;23.10;99.90
21811;DHT22;11067;48.788;9.208;2022-09-09T14:53:58;23.10;99.90
21811;DHT22;11067;48.788;9.208;2022-09-09T14:56:27;23.20;99.90
21811;DHT22;11067;48.788;9.208;2022-09-09T14:58:54;23.10;99.90
21811;DHT22;11067;48.788;9.208;2022-09-09T15:01:24;23.20;99.90
21811;DHT22;11067;48.788;9.208;2022-09-09T15:03:54;23.00;99.90
21811;DHT22;11067;48.788;9.208;2022-09-09T15:06:22;23.10;99.90
21811;DHT22;11067;48.788;9.208;2022-09-09T15:08:50;23.30;99.90
21811;DHT22;11067;48.788;9.208;2022-09-09T15:11:16;23.20;99.90
21811;DHT22;11067;48.788;9.208;2022-09-09T15:13:43;23.20;99.90
21811;DHT22;11067;48.788;9.208;2022-09-09T15:16:17;23.20;99.90
21811;DHT22;11067;48.788;9.208;2022-09-09T15:18:43;23.20;99.90
21811;DHT22;11067;48.788;9.208;2022-09-09T15:21:14;23.00;99.90
21811;DHT22;11067;48.788;9.208;2022-09-09T15:23:41;22.70;99.90
21811;DHT22;11067;48.788;9.208;2022-09-09T15:26:06;22.70;99.90
21811;DHT22;11067;48.788;9.208;2022-09-09T15:28:34;22.70;99.90
21811;DHT22;11067;48.788;9.208;2022-09-09T15:31:11;22.60;99.90
21811;DHT22;11067;48.788;9.208;2022-09-09T15:33:39;22.70;99.90
21811;DHT22;11067;48.788;9.208;2022-09-09T15:36:22;22.60;99.90
21811;DHT22;11067;48.788;9.208;2022-09-09T15:38:49;22.70;99.90
21811;DHT22;11067;48.788;9.208;2022-09-09T15:41:16;22.60;99.90
21811;DHT22;11067;48.788;9.208;2022-09-09T15:43:46;22.50;99.90
21811;DHT22;11067;48.788;9.208;2022-09-09T15:48:57;22.60;99.90
21811;DHT22;11067;48.788;9.208;2022-09-09T15:51:24;22.40;99.90
21811;DHT22;11067;48.788;9.208;2022-09-09T15:53:57;22.40;99.90
21811;DHT22;11067;48.788;9.208;2022-09-09T15:56:26;22.30;99.90
21811;DHT22;11067;48.788;9.208;2022-09-09T15:58:55;22.10;99.90
21811;DHT22;11067;48.788;9.208;2022-09-09T16:01:20;22.10;99.90
21811;DHT22;11067;48.788;9.208;2022-09-09T16:03:46;22.00;99.90
21811;DHT22;11067;48.788;9.208;2022-09-09T16:06:14;22.00;99.90
21811;DHT22;11067;48.788;9.208;2022-09-09T16:08:42;22.00;99.90
21811;DHT22;11067;48.788;9.208;2022-09-09T16:13:48;21.90;99.90
21811;DHT22;11067;48.788;9.208;2022-09-09T16:16:15;21.80;99.90
21811;DHT22;11067;48.788;9.208;2022-09-09T16:18:43;21.90;99.90
21811;DHT22;11067;48.788;9.208;2022-09-09T16:21:20;21.80;99.90
21811;DHT22;11067;48.788;9.208;2022-09-09T16:23:46;21.80;99.90
21811;DHT22;11067;48.788;9.208;2022-09-09T16:26:14;21.80;99.90
21811;DHT22;11067;48.788;9.208;2022-09-09T16:28:41;21.80;99.90
21811;DHT22;11067;48.788;9.208;2022-09-09T16:31:08;21.70;99.90
21811;DHT22;11067;48.788;9.208;2022-09-09T16:33:36;21.60;99.90
21811;DHT22;11067;48.788;9.208;2022-09-09T16:36:06;21.60;99.90
21811;DHT22;11067;48.788;9.208;2022-09-09T16:38:32;21.70;99.90
21811;DHT22;11067;48.788;9.208;2022-09-09T16:41:02;21.60;99.90
21811;DHT22;11067;48.788;9.208;2022-09-09T16:43:29;21.50;99.90
21811;DHT22;11067;48.788;9.208;2022-09-09T16:45:55;21.20;99.90
21811;DHT22;11067;48.788;9.208;2022-09-09T16:48:20;21.00;99.90
21811;DHT22;11067;48.788;9.208;2022-09-09T16:50:46;20.80;99.90
21811;DHT22;11067;48.788;9.208;2022-09-09T16:53:11;20.70;99.90
21811;DHT22;11067;48.788;9.208;2022-09-09T16:55:41;20.50;99.90
21811;DHT22;11067;48.788;9.208;2022-09-09T16:58:09;20.50;99.90
21811;DHT22;11067;48.788;9.208;2022-09-09T17:00:35;20.40;99.90
21811;DHT22;11067;48.788;9.208;2022-09-09T17:03:00;20.10;99.90
21811;DHT22;11067;48.788;9.208;2022-09-09T17:05:26;19.80;99.90
21811;DHT22;11067;48.788;9.208;2022-09-09T17:07:52;19.70;99.90
21811;DHT22;11067;48.788;9.208;2022-09-09T17:10:18;19.70;99.90
21811;DHT22;11067;48.788;9.208;2022-09-09T17:12:44;19.60;99.90
21811;DHT22;11067;48.788;9.208;2022-09-09T17:15:11;19.60;99.90
21811;DHT22;11067;48.788;9.208;2022-09-09T17:17:36;19.50;99.90
21811;DHT22;11067;48.788;9.208;2022-09-09T17:20:02;19.40;99.90
21811;DHT22;11067;48.788;9.208;2022-09-09T17:22:28;19.30;99.90
21811;DHT22;11067;48.788;9.208;2022-09-09T17:24:53;19.20;99.90
21811;DHT22;11067;48.788;9.208;2022-09-09T17:27:20;19.20;99.90
21811;DHT22;11067;48.788;9.208;2022-09-09T17:29:45;19.10;99.90
21811;DHT22;11067;48.788;9.208;2022-09-09T17:32:11;19.00;99.90